Delfred Romero — WDH9117 — position and weather

sailwx.info

Track history (hours):
 
Tides and Currents Weather Stations Pressure Air Temp Water Temp Dewpoint Dewpoint Depression Visibility Wind Speed Wind Dir Waves Ship Positions

Delfred Romero

Owner: Enterprise Marine Services, LLC, San Antonio, TX. More information available from US FCC via Universal Licensing System and Coast Guard Vessel Documentation Center.

Last reported at 2017-Nov-18 06:30 UTC. Time now 2017-Nov-18 06:47 UTC.
Position N 29°45' W 095°06'.

Length 29 m; draft 2.9 m.

MMSI: 367614890.

Date/timePositionNaut miles runAvg speedWind from/ knotsBaromVisibWave heightAir tempDewpointWater temp
2017-Nov-18 06:30N 29°45' W 095°06'3 0.3
2017-Nov-17 22:45N 29°47' W 095°05'0 0.0
2017-Nov-17 19:46N 29°47' W 095°05'1 2.3
2017-Nov-17 19:29N 29°47' W 095°05'1 0.2
2017-Nov-17 15:49N 29°47' W 095°05'0 0.0
2017-Nov-17 15:28N 29°47' W 095°05'0 0.3
2017-Nov-17 14:50N 29°47' W 095°05'0 0.0
2017-Nov-16 11:52N 29°47' W 095°05'0 0.6
2017-Nov-16 11:06N 29°47' W 095°04'0 0.0
2017-Nov-15 16:02N 29°47' W 095°05'2 2.9
2017-Nov-15 15:27N 29°46' W 095°05'1 1.9
2017-Nov-15 15:00N 29°45' W 095°06'0 0.0
2017-Nov-15 12:26N 29°45' W 095°06'1 1.7
2017-Nov-15 12:00N 29°46' W 095°05'2 5.0
2017-Nov-15 11:30N 29°44' W 095°03'0 0.0
2017-Nov-15 07:58N 29°44' W 095°03'3 5.6
2017-Nov-15 07:28N 29°47' W 095°05'1 0.1
2017-Nov-14 20:12N 29°47' W 095°05'1 3.6
2017-Nov-14 19:49N 29°46' W 095°05'2 6.1
2017-Nov-14 19:30N 29°44' W 095°03'0 0.2
2017-Nov-14 18:12N 29°44' W 095°03'1 1.3
2017-Nov-14 17:45N 29°45' W 095°04'2 4.8
2017-Nov-14 17:15N 29°47' W 095°04'1 0.0
2017-Nov-14 04:15N 29°47' W 095°05'0 1.8
2017-Nov-14 03:59N 29°47' W 095°04'0 0.1
2017-Nov-13 23:31N 29°47' W 095°05'0 5.1
2017-Nov-13 23:31N 29°47' W 095°05'0 0.4
2017-Nov-13 22:18N 29°47' W 095°04'1 0.0
2017-Nov-12 19:07N 29°47' W 095°05'0 0.0
2017-Nov-11 22:23N 29°47' W 095°05'0 0.3
2017-Nov-11 21:56N 29°47' W 095°05'1 1.6
2017-Nov-11 21:06N 29°46' W 095°05'0 3.4
2017-Nov-11 20:58N 29°46' W 095°04'3 5.5
2017-Nov-11 20:31N 29°44' W 095°02'2 4.9
2017-Nov-11 20:01N 29°42' W 095°00'3 5.8
2017-Nov-11 19:31N 29°40' W 094°58'3 6.5
2017-Nov-11 19:00N 29°37' W 094°57'3 6.4
2017-Nov-11 18:30N 29°34' W 094°55'3 6.9
2017-Nov-11 18:00N 29°31' W 094°53'1 0.1
2017-Nov-11 11:49N 29°30' W 094°53'2 6.9
2017-Nov-11 11:31N 29°32' W 094°54'3 6.9
2017-Nov-11 11:00N 29°35' W 094°56'4 7.1
2017-Nov-11 10:30N 29°38' W 094°58'4 7.5
2017-Nov-11 10:01N 29°42' W 094°60'3 6.3
2017-Nov-11 09:30N 29°44' W 095°02'3 2.5
2017-Nov-11 08:08N 29°47' W 095°05'0 0.3
2017-Nov-11 07:58N 29°47' W 095°05'1 2.0
2017-Nov-11 07:30N 29°46' W 095°05'1 0.3
2017-Nov-11 05:28N 29°46' W 095°06'1 1.4
2017-Nov-11 05:00N 29°46' W 095°05'1 2.5
2017-Nov-11 04:26N 29°47' W 095°05'0 0.2
2017-Nov-11 03:49N 29°47' W 095°05'1 2.3
2017-Nov-11 03:29N 29°46' W 095°05'1 0.6
2017-Nov-11 01:22N 29°46' W 095°06'1 2.2
2017-Nov-11 00:59N 29°46' W 095°05'1 0.3
2017-Nov-10 19:21N 29°47' W 095°05'1 2.6
2017-Nov-10 18:59N 29°46' W 095°05'2 0.7
2017-Nov-10 16:45N 29°46' W 095°06'2 0.4
2017-Nov-10 10:46N 29°47' W 095°05'1 1.8
2017-Nov-10 10:24N 29°47' W 095°04'0 0.3
2017-Nov-10 09:58N 29°47' W 095°04'1 1.7
2017-Nov-10 09:19N 29°46' W 095°05'0 0.8
2017-Nov-10 08:59N 29°46' W 095°05'2 4.8
2017-Nov-10 08:30N 29°44' W 095°03'3 5.6
2017-Nov-10 08:01N 29°42' W 095°01'3 6.2
2017-Nov-10 07:31N 29°40' W 094°58'3 6.9
2017-Nov-10 07:01N 29°37' W 094°57'3 7.0
2017-Nov-10 06:31N 29°34' W 094°55'4 7.2
2017-Nov-10 06:01N 29°31' W 094°53'2 0.1
2017-Nov-08 12:16N 29°29' W 094°52'2 6.9
2017-Nov-08 11:59N 29°30' W 094°53'3 6.7
2017-Nov-08 11:30N 29°33' W 094°55'3 6.4
2017-Nov-08 11:00N 29°36' W 094°57'3 6.4
2017-Nov-08 10:30N 29°39' W 094°58'3 6.7
2017-Nov-08 10:00N 29°42' W 094°60'3 5.8
2017-Nov-08 09:30N 29°44' W 095°02'3 6.3
2017-Nov-08 08:59N 29°46' W 095°05'3 6.1
2017-Nov-08 08:29N 29°44' W 095°08'3 6.2
2017-Nov-08 08:00N 29°45' W 095°11'2 4.3
2017-Nov-08 07:30N 29°44' W 095°13'  
Track history (hours):
 
Tides and Currents Weather Stations Pressure Air Temp Water Temp Dewpoint Dewpoint Depression Visibility Wind Speed Wind Dir Waves Ship Positions

Delfred Romero

Owner: Enterprise Marine Services, LLC, San Antonio, TX. More information available from US FCC via Universal Licensing System and Coast Guard Vessel Documentation Center.

Last reported at 2017-Nov-18 06:30 UTC. Time now 2017-Nov-18 06:47 UTC.
Position N 29°45' W 095°06'.

Length 29 m; draft 2.9 m.

MMSI: 367614890.

Date/timePositionNaut miles runAvg speedWind from/ knotsBaromVisibWave heightAir tempDewpointWater temp
2017-Nov-18 06:30N 29°45' W 095°06'3 0.3
2017-Nov-17 22:45N 29°47' W 095°05'0 0.0
2017-Nov-17 19:46N 29°47' W 095°05'1 2.3
2017-Nov-17 19:29N 29°47' W 095°05'1 0.2
2017-Nov-17 15:49N 29°47' W 095°05'0 0.0
2017-Nov-17 15:28N 29°47' W 095°05'0 0.3
2017-Nov-17 14:50N 29°47' W 095°05'0 0.0
2017-Nov-16 11:52N 29°47' W 095°05'0 0.6
2017-Nov-16 11:06N 29°47' W 095°04'0 0.0
2017-Nov-15 16:02N 29°47' W 095°05'2 2.9
2017-Nov-15 15:27N 29°46' W 095°05'1 1.9
2017-Nov-15 15:00N 29°45' W 095°06'0 0.0
2017-Nov-15 12:26N 29°45' W 095°06'1 1.7
2017-Nov-15 12:00N 29°46' W 095°05'2 5.0
2017-Nov-15 11:30N 29°44' W 095°03'0 0.0
2017-Nov-15 07:58N 29°44' W 095°03'3 5.6
2017-Nov-15 07:28N 29°47' W 095°05'1 0.1
2017-Nov-14 20:12N 29°47' W 095°05'1 3.6
2017-Nov-14 19:49N 29°46' W 095°05'2 6.1
2017-Nov-14 19:30N 29°44' W 095°03'0 0.2
2017-Nov-14 18:12N 29°44' W 095°03'1 1.3
2017-Nov-14 17:45N 29°45' W 095°04'2 4.8
2017-Nov-14 17:15N 29°47' W 095°04'1 0.0
2017-Nov-14 04:15N 29°47' W 095°05'0 1.8
2017-Nov-14 03:59N 29°47' W 095°04'0 0.1
2017-Nov-13 23:31N 29°47' W 095°05'0 5.1
2017-Nov-13 23:31N 29°47' W 095°05'0 0.4
2017-Nov-13 22:18N 29°47' W 095°04'1 0.0
2017-Nov-12 19:07N 29°47' W 095°05'0 0.0
2017-Nov-11 22:23N 29°47' W 095°05'0 0.3
2017-Nov-11 21:56N 29°47' W 095°05'1 1.6
2017-Nov-11 21:06N 29°46' W 095°05'0 3.4
2017-Nov-11 20:58N 29°46' W 095°04'3 5.5
2017-Nov-11 20:31N 29°44' W 095°02'2 4.9
2017-Nov-11 20:01N 29°42' W 095°00'3 5.8
2017-Nov-11 19:31N 29°40' W 094°58'3 6.5
2017-Nov-11 19:00N 29°37' W 094°57'3 6.4
2017-Nov-11 18:30N 29°34' W 094°55'3 6.9
2017-Nov-11 18:00N 29°31' W 094°53'1 0.1
2017-Nov-11 11:49N 29°30' W 094°53'2 6.9
2017-Nov-11 11:31N 29°32' W 094°54'3 6.9
2017-Nov-11 11:00N 29°35' W 094°56'4 7.1
2017-Nov-11 10:30N 29°38' W 094°58'4 7.5
2017-Nov-11 10:01N 29°42' W 094°60'3 6.3
2017-Nov-11 09:30N 29°44' W 095°02'3 2.5
2017-Nov-11 08:08N 29°47' W 095°05'0 0.3
2017-Nov-11 07:58N 29°47' W 095°05'1 2.0
2017-Nov-11 07:30N 29°46' W 095°05'1 0.3
2017-Nov-11 05:28N 29°46' W 095°06'1 1.4
2017-Nov-11 05:00N 29°46' W 095°05'1 2.5
2017-Nov-11 04:26N 29°47' W 095°05'0 0.2
2017-Nov-11 03:49N 29°47' W 095°05'1 2.3
2017-Nov-11 03:29N 29°46' W 095°05'1 0.6
2017-Nov-11 01:22N 29°46' W 095°06'1 2.2
2017-Nov-11 00:59N 29°46' W 095°05'1 0.3
2017-Nov-10 19:21N 29°47' W 095°05'1 2.6
2017-Nov-10 18:59N 29°46' W 095°05'2 0.7
2017-Nov-10 16:45N 29°46' W 095°06'2 0.4
2017-Nov-10 10:46N 29°47' W 095°05'1 1.8
2017-Nov-10 10:24N 29°47' W 095°04'0 0.3
2017-Nov-10 09:58N 29°47' W 095°04'1 1.7
2017-Nov-10 09:19N 29°46' W 095°05'0 0.8
2017-Nov-10 08:59N 29°46' W 095°05'2 4.8
2017-Nov-10 08:30N 29°44' W 095°03'3 5.6
2017-Nov-10 08:01N 29°42' W 095°01'3 6.2
2017-Nov-10 07:31N 29°40' W 094°58'3 6.9
2017-Nov-10 07:01N 29°37' W 094°57'3 7.0
2017-Nov-10 06:31N 29°34' W 094°55'4 7.2
2017-Nov-10 06:01N 29°31' W 094°53'2 0.1
2017-Nov-08 12:16N 29°29' W 094°52'2 6.9
2017-Nov-08 11:59N 29°30' W 094°53'3 6.7
2017-Nov-08 11:30N 29°33' W 094°55'3 6.4
2017-Nov-08 11:00N 29°36' W 094°57'3 6.4
2017-Nov-08 10:30N 29°39' W 094°58'3 6.7
2017-Nov-08 10:00N 29°42' W 094°60'3 5.8
2017-Nov-08 09:30N 29°44' W 095°02'3 6.3
2017-Nov-08 08:59N 29°46' W 095°05'3 6.1
2017-Nov-08 08:29N 29°44' W 095°08'3 6.2
2017-Nov-08 08:00N 29°45' W 095°11'2 4.3
2017-Nov-08 07:30N 29°44' W 095°13'  

Dump ship's entire track history